createdAt,value
2023-01-13T00:04:13.498Z,7.70
2023-01-13T00:09:16.298Z,7.68
2023-01-13T00:14:19.109Z,7.64
2023-01-13T00:19:22.211Z,7.62
2023-01-13T00:24:25.220Z,7.64
2023-01-13T00:29:28.119Z,7.65
2023-01-13T00:34:31.028Z,7.65
2023-01-13T00:39:33.932Z,7.62
2023-01-13T00:44:36.832Z,7.58
2023-01-13T00:49:39.634Z,7.53
2023-01-13T00:54:42.434Z,7.50
2023-01-13T00:59:45.242Z,7.48
2023-01-13T01:04:48.043Z,7.47
2023-01-13T01:09:50.842Z,7.48
2023-01-13T01:14:53.640Z,7.48
2023-01-13T01:19:56.544Z,7.50
2023-01-13T01:24:59.975Z,7.52
2023-01-13T01:30:02.865Z,7.54
2023-01-13T01:35:06.780Z,7.55
2023-01-13T01:40:10.911Z,7.56
2023-01-13T01:45:25.300Z,7.56
2023-01-13T01:50:29.842Z,7.56
2023-01-13T01:55:37.150Z,7.53
2023-01-13T02:00:40.652Z,7.51
2023-01-13T02:05:43.676Z,7.39
2023-01-13T02:10:53.423Z,7.24
2023-01-13T02:16:07.989Z,7.15
2023-01-13T02:21:32.641Z,7.11
2023-01-13T02:26:38.401Z,7.08
2023-01-13T02:31:46.493Z,7.07
2023-01-13T02:36:55.482Z,7.09
2023-01-13T02:42:27.681Z,7.08
2023-01-13T02:47:36.136Z,7.06
2023-01-13T02:52:46.177Z,7.04
2023-01-13T02:57:50.921Z,7.00
2023-01-13T03:02:54.324Z,6.97
2023-01-13T03:08:15.866Z,6.95
2023-01-13T03:13:37.030Z,6.95
2023-01-13T03:18:52.695Z,6.97
2023-01-13T03:24:28.068Z,7.00
2023-01-13T03:29:42.837Z,7.02
2023-01-13T03:34:54.141Z,7.04
2023-01-13T03:40:05.047Z,7.05
2023-01-13T03:45:14.412Z,7.06
2023-01-13T03:50:49.581Z,7.06
2023-01-13T03:55:58.620Z,7.08
2023-01-13T04:01:11.377Z,7.11
2023-01-13T04:06:38.349Z,7.12
2023-01-13T04:11:52.076Z,7.14
2023-01-13T04:16:56.336Z,7.13
2023-01-13T04:21:59.722Z,7.15
2023-01-13T04:27:03.041Z,7.16
2023-01-13T04:32:05.840Z,7.18
2023-01-13T04:37:08.643Z,7.20
2023-01-13T04:42:11.462Z,7.20
2023-01-13T04:47:14.244Z,7.21
2023-01-13T04:52:17.060Z,7.23
2023-01-13T04:57:19.849Z,7.23
2023-01-13T05:02:22.701Z,7.24
2023-01-13T05:07:25.532Z,7.24
2023-01-13T05:12:46.637Z,7.23
2023-01-13T05:17:50.386Z,7.24
2023-01-13T05:23:11.595Z,7.25
2023-01-13T05:28:14.557Z,7.27
2023-01-13T05:33:20.448Z,7.27
2023-01-13T05:38:23.307Z,7.25
2023-01-13T05:43:27.217Z,7.25
2023-01-13T05:48:39.517Z,7.25
2023-01-13T05:53:42.286Z,7.28
2023-01-13T05:58:45.029Z,7.29
2023-01-13T06:03:47.716Z,7.30
2023-01-13T06:08:50.453Z,7.30
2023-01-13T06:13:53.487Z,7.31
2023-01-13T06:18:56.292Z,7.33
2023-01-13T06:23:59.579Z,7.33
2023-01-13T06:29:02.234Z,7.33
2023-01-13T06:34:11.669Z,7.34
2023-01-13T06:39:20.713Z,7.34
2023-01-13T06:44:24.637Z,7.35
2023-01-13T06:49:27.437Z,7.37
2023-01-13T06:54:30.748Z,7.38
2023-01-13T06:59:36.234Z,7.40
2023-01-13T07:04:39.017Z,7.42
2023-01-13T07:09:41.814Z,7.44
2023-01-13T07:15:03.267Z,7.46
2023-01-13T07:20:07.090Z,7.48
2023-01-13T07:25:10.688Z,7.49
2023-01-13T07:30:14.044Z,7.50
2023-01-13T07:35:21.889Z,7.51
2023-01-13T07:40:24.668Z,7.54
2023-01-13T07:45:27.459Z,7.57
2023-01-13T07:50:30.233Z,7.59
2023-01-13T07:55:32.925Z,7.62
2023-01-13T08:00:36.969Z,7.64
2023-01-13T08:05:40.075Z,7.66
2023-01-13T08:10:43.096Z,7.68
2023-01-13T08:15:48.527Z,7.72
2023-01-13T08:20:52.798Z,7.75
2023-01-13T08:26:02.096Z,7.79
2023-01-13T08:31:07.402Z,7.83
2023-01-13T08:36:12.493Z,7.86
2023-01-13T08:41:36.938Z,7.90
2023-01-13T08:46:39.776Z,7.93
2023-01-13T08:51:42.780Z,7.95
2023-01-13T08:56:46.140Z,7.97
2023-01-13T09:01:49.520Z,7.96
2023-01-13T09:06:52.619Z,7.96
2023-01-13T09:12:14.527Z,7.97
2023-01-13T09:17:18.548Z,7.98
2023-01-13T09:22:22.060Z,8.00
2023-01-13T09:27:25.016Z,8.03
2023-01-13T09:32:27.767Z,8.05
2023-01-13T09:37:34.433Z,8.09
2023-01-13T09:43:05.885Z,8.14
2023-01-13T09:48:30.295Z,8.22
2023-01-13T09:53:59.624Z,8.28
2023-01-13T09:59:02.622Z,8.37
2023-01-13T10:04:12.397Z,8.41
2023-01-13T10:09:21.346Z,8.42
2023-01-13T10:14:35.917Z,8.43
2023-01-13T10:19:43.680Z,8.46
2023-01-13T10:25:27.050Z,8.50
2023-01-13T10:30:40.354Z,8.57
2023-01-13T10:35:55.219Z,8.63
2023-01-13T10:41:01.191Z,8.62
2023-01-13T10:46:05.976Z,8.61
2023-01-13T10:51:19.255Z,8.59
2023-01-13T10:56:25.370Z,8.61
2023-01-13T11:01:30.600Z,8.67
2023-01-13T11:06:36.279Z,8.72
2023-01-13T11:11:47.191Z,8.70
2023-01-13T11:16:56.278Z,8.66
2023-01-13T11:22:08.773Z,8.67
2023-01-13T11:27:14.240Z,8.70
2023-01-13T11:32:20.532Z,8.67
2023-01-13T11:37:31.379Z,8.65
2023-01-13T11:42:44.350Z,8.68
2023-01-13T11:47:51.910Z,8.72
2023-01-13T11:53:12.371Z,8.66
2023-01-13T11:58:50.646Z,8.57
2023-01-13T12:04:20.957Z,8.53
2023-01-13T12:09:35.222Z,8.50
2023-01-13T12:14:54.189Z,8.52
2023-01-13T12:19:57.336Z,8.53
2023-01-13T12:25:14.147Z,8.53
2023-01-13T12:30:40.694Z,8.51
2023-01-13T12:35:56.380Z,8.49
2023-01-13T12:41:16.926Z,8.48
2023-01-13T12:46:19.659Z,8.44
2023-01-13T12:51:25.824Z,8.42
2023-01-13T12:56:42.182Z,8.42
2023-01-13T13:01:47.464Z,8.43
2023-01-13T13:07:04.751Z,8.43
2023-01-13T13:12:51.426Z,8.42
2023-01-13T13:18:17.546Z,8.44
2023-01-13T13:23:38.963Z,8.45
2023-01-13T13:28:53.771Z,8.46
2023-01-13T13:34:25.969Z,8.47
2023-01-13T13:39:51.318Z,8.49
2023-01-13T13:45:14.334Z,8.52
2023-01-13T13:50:20.892Z,8.51
2023-01-13T13:55:26.812Z,8.48
2023-01-13T14:00:36.042Z,8.46
2023-01-13T14:05:38.845Z,8.45
2023-01-13T14:10:44.939Z,8.42
2023-01-13T14:16:00.668Z,8.40
2023-01-13T14:21:18.742Z,8.38
2023-01-13T14:26:32.400Z,8.37
2023-01-13T14:31:35.599Z,8.37
2023-01-13T14:36:39.448Z,8.35
2023-01-13T14:41:42.223Z,8.32
2023-01-13T14:46:46.047Z,8.27
2023-01-13T14:51:48.847Z,8.25
2023-01-13T14:56:53.952Z,8.23
2023-01-13T15:01:57.722Z,8.23
2023-01-13T15:07:01.651Z,8.23
2023-01-13T15:12:24.007Z,8.23
2023-01-13T15:17:28.843Z,8.24
2023-01-13T15:22:31.495Z,8.25
2023-01-13T15:27:34.253Z,8.25
2023-01-13T15:32:37.367Z,8.24
2023-01-13T15:37:41.008Z,8.24
2023-01-13T15:43:02.518Z,8.24
2023-01-13T15:48:06.039Z,8.23
2023-01-13T15:53:14.437Z,8.23
2023-01-13T15:58:20.790Z,8.22
2023-01-13T16:03:24.257Z,8.17
2023-01-13T16:08:27.003Z,8.12
2023-01-13T16:13:29.790Z,8.08
2023-01-13T16:18:32.594Z,8.05
2023-01-13T16:23:35.317Z,8.02
2023-01-13T16:28:38.114Z,8.01
2023-01-13T16:33:41.453Z,7.98
2023-01-13T16:38:44.456Z,7.98
2023-01-13T16:43:48.532Z,7.98
2023-01-13T16:48:53.309Z,7.97
2023-01-13T16:53:56.359Z,7.97
2023-01-13T16:59:14.417Z,7.96
2023-01-13T17:04:19.889Z,7.95
2023-01-13T17:09:25.666Z,7.93
2023-01-13T17:14:28.393Z,7.91
2023-01-13T17:19:31.204Z,7.90
2023-01-13T17:24:35.299Z,7.88
2023-01-13T17:29:38.648Z,7.87
2023-01-13T17:34:41.447Z,7.86
2023-01-13T17:39:46.495Z,7.85
2023-01-13T17:44:50.608Z,7.83
2023-01-13T17:49:53.311Z,7.81
2023-01-13T17:54:56.208Z,7.80
2023-01-13T17:59:59.747Z,7.76
2023-01-13T18:05:02.630Z,7.75
2023-01-13T18:10:06.194Z,7.76
2023-01-13T18:15:09.646Z,7.77
2023-01-13T18:20:35.399Z,7.79
2023-01-13T18:25:58.060Z,7.80
2023-01-13T18:31:00.909Z,7.84
2023-01-13T18:36:08.021Z,7.87
2023-01-13T18:41:30.845Z,7.88
2023-01-13T18:46:33.584Z,7.84
2023-01-13T18:51:36.304Z,7.76
2023-01-13T18:56:39.016Z,7.66
2023-01-13T19:01:42.870Z,7.57
2023-01-13T19:06:49.868Z,7.49
2023-01-13T19:11:53.277Z,7.45
2023-01-13T19:16:55.984Z,7.42
2023-01-13T19:21:58.886Z,7.40
2023-01-13T19:27:01.806Z,7.39
2023-01-13T19:32:05.424Z,7.42
2023-01-13T19:37:08.523Z,7.44
2023-01-13T19:42:31.393Z,7.43
2023-01-13T19:47:34.433Z,7.38
2023-01-13T19:52:37.327Z,7.30
2023-01-13T19:57:40.870Z,7.18
2023-01-13T20:02:49.549Z,7.04
2023-01-13T20:07:53.000Z,6.92
2023-01-13T20:12:55.890Z,6.82
2023-01-13T20:17:58.897Z,6.72
2023-01-13T20:23:01.698Z,6.67
2023-01-13T20:28:05.353Z,6.64
2023-01-13T20:33:08.516Z,6.59
2023-01-13T20:38:12.291Z,6.51
2023-01-13T20:43:16.627Z,6.43
2023-01-13T20:48:20.883Z,6.35
2023-01-13T20:53:23.629Z,6.28
2023-01-13T20:58:26.431Z,6.23
2023-01-13T21:03:29.413Z,6.16
2023-01-13T21:08:32.433Z,6.11
2023-01-13T21:13:53.618Z,6.08
2023-01-13T21:19:08.232Z,6.04
2023-01-13T21:24:10.948Z,5.99
2023-01-13T21:29:13.762Z,5.94
2023-01-13T21:34:16.565Z,5.90
2023-01-13T21:39:19.504Z,5.87
2023-01-13T21:44:41.006Z,5.88
2023-01-13T21:49:45.413Z,5.87
2023-01-13T21:55:06.823Z,5.87
2023-01-13T22:00:10.744Z,5.85
2023-01-13T22:05:15.777Z,5.84
2023-01-13T22:10:23.708Z,5.81
2023-01-13T22:15:29.054Z,5.75
2023-01-13T22:20:31.849Z,5.69
2023-01-13T22:25:34.655Z,5.64
2023-01-13T22:30:39.010Z,5.58
2023-01-13T22:35:41.676Z,5.52
2023-01-13T22:40:44.374Z,5.49
2023-01-13T22:45:57.580Z,5.44
2023-01-13T22:51:15.190Z,5.39
2023-01-13T22:56:21.668Z,5.36
2023-01-13T23:01:26.736Z,5.33
2023-01-13T23:06:31.785Z,5.31
2023-01-13T23:11:35.414Z,5.28
2023-01-13T23:16:40.404Z,5.26
2023-01-13T23:21:43.295Z,5.24
2023-01-13T23:26:46.156Z,5.25
2023-01-13T23:31:48.966Z,5.28
2023-01-13T23:36:51.765Z,5.33
2023-01-13T23:41:55.013Z,5.41
2023-01-13T23:46:57.781Z,5.47
2023-01-13T23:52:00.899Z,5.50
2023-01-13T23:57:03.687Z,5.50
